createdAt,value
2017-06-19T00:01:38.620Z,4.87
2017-06-19T00:04:12.716Z,5.00
2017-06-19T00:06:46.921Z,5.00
2017-06-19T00:09:21.005Z,5.10
2017-06-19T00:11:55.167Z,4.40
2017-06-19T00:14:29.273Z,5.53
2017-06-19T00:17:03.383Z,4.80
2017-06-19T00:19:37.657Z,5.13
2017-06-19T00:22:11.956Z,4.40
2017-06-19T00:24:45.997Z,5.40
2017-06-19T00:27:20.219Z,5.13
2017-06-19T00:29:54.278Z,5.07
2017-06-19T00:32:28.577Z,4.83
2017-06-19T00:35:02.717Z,4.77
2017-06-19T00:37:37.141Z,5.60
2017-06-19T00:40:11.300Z,5.23
2017-06-19T00:42:45.493Z,5.10
2017-06-19T00:45:19.699Z,5.03
2017-06-19T00:47:53.964Z,5.30
2017-06-19T00:50:28.239Z,4.63
2017-06-19T00:53:02.275Z,4.90
2017-06-19T00:55:36.508Z,5.60
2017-06-19T00:58:10.698Z,5.60
2017-06-19T01:00:45.813Z,5.63
2017-06-19T01:03:20.004Z,5.43
2017-06-19T01:05:54.073Z,5.40
2017-06-19T01:08:28.249Z,6.10
2017-06-19T01:11:02.309Z,6.07
2017-06-19T01:13:36.314Z,6.47
2017-06-19T01:16:10.457Z,6.10
2017-06-19T01:18:44.641Z,6.20
2017-06-19T01:21:18.761Z,6.33
2017-06-19T01:23:52.870Z,5.53
2017-06-19T01:26:27.035Z,6.63
2017-06-19T01:29:01.089Z,6.17
2017-06-19T01:31:35.450Z,5.40
2017-06-19T01:34:09.488Z,5.77
2017-06-19T01:36:43.693Z,5.67
2017-06-19T01:39:17.903Z,6.20
2017-06-19T01:41:52.148Z,5.40
2017-06-19T01:44:26.403Z,6.37
2017-06-19T01:47:00.501Z,7.63
2017-06-19T01:49:34.914Z,6.50
2017-06-19T01:52:09.124Z,5.30
2017-06-19T01:54:43.427Z,6.47
2017-06-19T01:57:17.692Z,6.50
2017-06-19T01:59:51.985Z,6.87
2017-06-19T02:02:26.037Z,6.37
2017-06-19T02:05:00.011Z,6.40
2017-06-19T02:07:34.246Z,5.90
2017-06-19T02:10:08.317Z,5.80
2017-06-19T02:12:42.509Z,6.20
2017-06-19T02:15:16.783Z,5.73
2017-06-19T02:17:51.044Z,5.50
2017-06-19T02:20:25.117Z,5.60
2017-06-19T02:22:59.252Z,5.70
2017-06-19T02:25:33.500Z,5.87
2017-06-19T02:28:07.628Z,6.20
2017-06-19T02:30:41.666Z,5.67
2017-06-19T02:33:15.758Z,5.57
2017-06-19T02:35:50.004Z,5.50
2017-06-19T02:38:24.089Z,5.90
2017-06-19T02:40:58.338Z,5.70
2017-06-19T02:43:32.692Z,5.47
2017-06-19T02:46:06.868Z,5.30
2017-06-19T02:48:41.201Z,5.37
2017-06-19T02:51:15.596Z,5.73
2017-06-19T02:53:49.817Z,5.47
2017-06-19T02:56:24.010Z,5.63
2017-06-19T02:58:58.123Z,5.07
2017-06-19T03:01:32.423Z,4.87
2017-06-19T03:04:06.653Z,5.30
2017-06-19T03:06:40.793Z,6.20
2017-06-19T03:09:14.968Z,6.00
2017-06-19T03:11:49.250Z,5.50
2017-06-19T03:14:23.515Z,5.27
2017-06-19T03:16:57.683Z,5.50
2017-06-19T03:19:31.952Z,5.67
2017-06-19T03:22:06.029Z,5.70
2017-06-19T03:24:40.117Z,5.33
2017-06-19T03:27:14.265Z,5.77
2017-06-19T03:29:48.401Z,6.00
2017-06-19T03:32:22.437Z,5.67
2017-06-19T03:34:56.679Z,5.50
2017-06-19T03:37:30.885Z,5.70
2017-06-19T03:40:05.053Z,5.53
2017-06-19T03:42:39.325Z,6.07
2017-06-19T03:45:13.466Z,5.50
2017-06-19T03:47:47.789Z,6.17
2017-06-19T03:50:21.817Z,5.87
2017-06-19T03:52:56.044Z,6.43
2017-06-19T03:55:30.552Z,6.07
2017-06-19T03:58:04.635Z,6.60
2017-06-19T04:00:39.788Z,6.13
2017-06-19T04:03:14.027Z,6.43
2017-06-19T04:05:48.303Z,6.50
2017-06-19T04:08:22.479Z,6.23
2017-06-19T04:10:56.636Z,6.47
2017-06-19T04:13:30.790Z,7.13
2017-06-19T04:16:04.997Z,5.57
2017-06-19T04:18:39.182Z,6.53
2017-06-19T04:21:13.400Z,6.87
2017-06-19T04:23:47.937Z,6.90
2017-06-19T04:26:22.442Z,6.60
2017-06-19T04:28:56.576Z,6.97
2017-06-19T04:31:30.878Z,6.93
2017-06-19T04:34:05.064Z,6.23
2017-06-19T04:36:39.272Z,6.13
2017-06-19T04:39:13.385Z,6.70
2017-06-19T04:41:47.613Z,6.83
2017-06-19T04:44:22.016Z,6.30
2017-06-19T04:46:56.324Z,6.20
2017-06-19T04:49:30.857Z,7.20
2017-06-19T04:52:05.548Z,6.10
2017-06-19T04:54:39.668Z,6.43
2017-06-19T04:57:13.985Z,6.23
2017-06-19T04:59:48.419Z,5.33
2017-06-19T05:02:22.751Z,6.00
2017-06-19T05:04:57.373Z,5.87
2017-06-19T05:07:31.749Z,6.37
2017-06-19T05:10:06.076Z,5.63
2017-06-19T05:12:40.279Z,5.33
2017-06-19T05:15:14.314Z,5.10
2017-06-19T05:17:48.722Z,5.50
2017-06-19T05:20:22.897Z,6.00
2017-06-19T05:22:57.130Z,5.10
2017-06-19T05:25:31.569Z,5.37
2017-06-19T05:28:05.622Z,5.17
2017-06-19T05:30:39.843Z,5.57
2017-06-19T05:33:14.175Z,4.73
2017-06-19T05:35:48.294Z,5.17
2017-06-19T05:38:23.704Z,4.60
2017-06-19T05:40:58.009Z,4.50
2017-06-19T05:43:32.224Z,4.77
2017-06-19T05:46:06.396Z,5.10
2017-06-19T05:48:40.544Z,4.73
2017-06-19T05:51:14.567Z,5.03
2017-06-19T05:53:48.762Z,4.70
2017-06-19T05:56:22.897Z,4.87
2017-06-19T05:58:57.473Z,5.30
2017-06-19T06:01:31.955Z,4.37
2017-06-19T06:04:06.457Z,5.00
2017-06-19T06:06:40.573Z,4.40
2017-06-19T06:09:14.808Z,4.30
2017-06-19T06:11:49.044Z,4.33
2017-06-19T06:14:23.167Z,4.73
2017-06-19T06:16:57.512Z,4.50
2017-06-19T06:19:31.802Z,3.97
2017-06-19T06:22:06.033Z,4.73
2017-06-19T06:24:40.445Z,4.40
2017-06-19T06:27:14.602Z,4.50
2017-06-19T06:29:48.956Z,4.50
2017-06-19T06:32:23.281Z,4.40
2017-06-19T06:34:57.606Z,4.30
2017-06-19T06:37:31.716Z,4.07
2017-06-19T06:40:05.918Z,4.17
2017-06-19T06:42:40.128Z,3.97
2017-06-19T06:45:14.366Z,4.43
2017-06-19T06:47:48.572Z,4.20
2017-06-19T06:50:22.673Z,4.10
2017-06-19T06:52:56.800Z,4.30
2017-06-19T06:55:30.972Z,4.00
2017-06-19T06:58:04.995Z,5.00
2017-06-19T07:00:39.193Z,4.50
2017-06-19T07:03:13.256Z,4.47
2017-06-19T07:05:47.407Z,4.43
2017-06-19T07:08:21.545Z,4.43
2017-06-19T07:10:55.768Z,4.83
2017-06-19T07:13:29.995Z,4.30
2017-06-19T07:16:04.175Z,4.10
2017-06-19T07:18:38.259Z,4.30
2017-06-19T07:21:12.282Z,5.00
2017-06-19T07:23:46.440Z,4.30
2017-06-19T07:26:27.302Z,4.60
2017-06-19T07:29:01.402Z,4.40
2017-06-19T07:31:35.527Z,4.53
2017-06-19T07:34:10.706Z,4.60
2017-06-19T07:36:44.815Z,4.60
2017-06-19T07:39:18.991Z,4.63
2017-06-19T07:41:53.223Z,5.00
2017-06-19T07:44:27.414Z,5.00
2017-06-19T07:47:01.661Z,4.40
2017-06-19T07:49:35.845Z,4.63
2017-06-19T07:52:09.900Z,4.30
2017-06-19T07:54:44.044Z,4.63
2017-06-19T07:57:18.122Z,4.17
2017-06-19T07:59:52.403Z,4.30
2017-06-19T08:02:26.490Z,4.20
2017-06-19T08:05:00.725Z,4.80
2017-06-19T08:07:34.846Z,4.33
2017-06-19T08:10:08.890Z,4.80
2017-06-19T08:12:42.993Z,4.27
2017-06-19T08:15:17.188Z,4.40
2017-06-19T08:17:51.360Z,4.43
2017-06-19T08:20:25.410Z,4.30
2017-06-19T08:22:59.601Z,5.00
2017-06-19T08:25:33.638Z,4.63
2017-06-19T08:31:22.297Z,4.90
2017-06-19T08:33:56.563Z,4.37
2017-06-19T08:36:30.757Z,4.60
2017-06-19T08:39:04.808Z,4.53
2017-06-19T08:41:39.036Z,4.80
2017-06-19T08:44:13.110Z,4.47
2017-06-19T08:46:47.395Z,4.60
2017-06-19T08:49:21.544Z,4.50
2017-06-19T08:51:55.691Z,4.47
2017-06-19T09:01:00.505Z,5.20
2017-06-19T09:03:34.747Z,4.67
2017-06-19T09:06:08.860Z,5.50
2017-06-19T09:08:43.029Z,5.23
2017-06-19T09:11:17.089Z,4.50
2017-06-19T09:13:51.196Z,5.00
2017-06-19T09:16:25.443Z,5.20
2017-06-19T09:18:59.526Z,4.77
2017-06-19T09:21:33.710Z,6.60
2017-06-19T09:24:07.784Z,4.53
2017-06-19T09:26:41.892Z,4.80
2017-06-19T09:29:16.097Z,4.90
2017-06-19T09:31:50.204Z,4.70
2017-06-19T09:34:24.377Z,4.30
2017-06-19T09:36:58.635Z,4.70
2017-06-19T09:39:32.764Z,4.73
2017-06-19T09:42:06.812Z,4.27
2017-06-19T09:44:40.880Z,4.57
2017-06-19T09:47:14.921Z,5.00
2017-06-19T09:49:49.156Z,4.50
2017-06-19T09:52:23.317Z,4.87
2017-06-19T09:54:57.564Z,4.77
2017-06-19T09:57:31.807Z,4.50
2017-06-19T10:00:05.905Z,4.70
2017-06-19T10:02:40.084Z,4.40
2017-06-19T10:05:14.133Z,4.80
2017-06-19T10:07:48.286Z,4.63
2017-06-19T10:10:22.330Z,4.20
2017-06-19T10:12:56.467Z,4.73
2017-06-19T10:15:30.513Z,4.37
2017-06-19T10:18:04.726Z,4.90
2017-06-19T10:20:38.783Z,4.67
2017-06-19T10:23:12.828Z,4.17
2017-06-19T10:25:47.030Z,4.20
2017-06-19T10:28:21.020Z,5.00
2017-06-19T10:30:55.029Z,4.47
2017-06-19T10:33:29.169Z,4.50
2017-06-19T10:36:03.400Z,4.20
2017-06-19T10:38:37.529Z,4.90
2017-06-19T10:44:26.495Z,4.33
2017-06-19T10:47:00.692Z,4.47
2017-06-19T10:49:34.743Z,4.80
2017-06-19T10:52:08.927Z,4.87
2017-06-19T10:54:42.995Z,4.20
2017-06-19T10:57:17.010Z,4.60
2017-06-19T10:59:51.157Z,4.83
2017-06-19T11:02:25.576Z,5.00
2017-06-19T11:04:59.684Z,4.53
2017-06-19T11:07:33.934Z,4.63
2017-06-19T11:10:07.997Z,4.40
2017-06-19T11:12:42.276Z,4.50
2017-06-19T11:15:16.449Z,4.43
2017-06-19T11:17:50.669Z,5.17
2017-06-19T11:20:24.794Z,4.53
2017-06-19T11:22:58.945Z,4.90
2017-06-19T11:25:33.233Z,5.37
2017-06-19T11:28:07.220Z,4.60
2017-06-19T11:30:41.199Z,4.70
2017-06-19T11:33:15.252Z,4.60
2017-06-19T11:35:49.423Z,5.10
2017-06-19T11:38:24.851Z,5.40
2017-06-19T11:40:59.052Z,4.80
2017-06-19T11:43:33.173Z,4.53
2017-06-19T11:46:07.360Z,5.20
2017-06-19T11:48:41.541Z,5.00
2017-06-19T11:51:15.688Z,5.17
2017-06-19T11:53:49.877Z,5.20
2017-06-19T11:56:24.056Z,5.23
2017-06-19T11:58:58.106Z,4.90
2017-06-19T12:01:32.292Z,5.40
2017-06-19T12:04:06.342Z,5.20
2017-06-19T12:06:40.582Z,5.30
2017-06-19T12:09:14.657Z,5.40
2017-06-19T12:15:03.893Z,5.53
2017-06-19T12:17:38.129Z,5.20
2017-06-19T12:20:12.220Z,5.80
2017-06-19T12:22:46.487Z,5.67
2017-06-19T12:25:20.510Z,5.70
2017-06-19T12:31:10.050Z,5.03
2017-06-19T12:33:44.216Z,5.30
2017-06-19T12:36:18.229Z,5.30
2017-06-19T12:38:52.392Z,5.73
2017-06-19T12:41:26.499Z,6.07
2017-06-19T12:44:00.532Z,5.53
2017-06-19T12:46:34.713Z,5.73
2017-06-19T12:49:08.756Z,5.70
2017-06-19T12:51:42.930Z,5.37
2017-06-19T12:54:17.009Z,5.93
2017-06-19T13:03:21.309Z,5.90
2017-06-19T13:05:55.577Z,5.50
2017-06-19T13:08:29.880Z,5.77
2017-06-19T13:11:03.952Z,5.87
2017-06-19T13:13:38.165Z,5.87
2017-06-19T13:16:12.759Z,6.10
2017-06-19T13:18:46.756Z,6.55
2017-06-19T13:21:20.837Z,6.60
2017-06-19T13:23:55.173Z,6.10
2017-06-19T13:26:29.204Z,5.53
2017-06-19T13:29:03.205Z,6.25
2017-06-19T13:38:08.571Z,8.23
2017-06-19T13:40:42.808Z,5.90
2017-06-19T13:43:17.005Z,5.30
2017-06-19T13:45:51.136Z,5.30
2017-06-19T13:51:40.348Z,5.40
2017-06-19T13:54:14.538Z,5.20
2017-06-19T13:56:48.659Z,5.50
2017-06-19T13:59:22.891Z,5.23
2017-06-19T14:01:57.021Z,5.70
2017-06-19T14:04:31.268Z,5.30
2017-06-19T14:07:05.403Z,5.53
2017-06-19T14:09:39.631Z,5.37
2017-06-19T14:12:13.770Z,5.17
2017-06-19T14:14:47.837Z,5.00
2017-06-19T14:17:21.909Z,5.00
2017-06-19T14:19:55.991Z,5.10
2017-06-19T14:22:29.995Z,5.30
2017-06-19T14:25:04.127Z,5.40
2017-06-19T14:30:53.333Z,5.43
2017-06-19T14:33:27.362Z,5.20
2017-06-19T14:36:01.523Z,5.40
2017-06-19T14:41:50.556Z,5.70
2017-06-19T14:44:24.740Z,5.37
2017-06-19T14:46:58.985Z,5.63
2017-06-19T14:49:33.078Z,5.30
2017-06-19T14:52:07.131Z,5.67
2017-06-19T14:54:41.369Z,5.53
2017-06-19T14:57:15.456Z,5.07
2017-06-19T14:59:49.528Z,5.10
2017-06-19T15:02:23.762Z,7.17
2017-06-19T15:04:58.006Z,5.40
2017-06-19T15:14:01.964Z,4.93
2017-06-19T15:16:36.180Z,4.93
2017-06-19T15:19:10.232Z,5.40
2017-06-19T15:21:50.432Z,5.00
2017-06-19T15:24:24.454Z,4.87
2017-06-19T15:26:58.677Z,4.50
2017-06-19T15:29:32.700Z,4.93
2017-06-19T15:32:06.790Z,4.57
2017-06-19T15:37:56.041Z,4.43
2017-06-19T15:40:31.076Z,4.40
2017-06-19T15:43:05.279Z,4.47
2017-06-19T15:45:39.329Z,4.70
2017-06-19T15:51:27.928Z,5.10
2017-06-19T15:54:02.793Z,4.73
2017-06-19T15:56:36.835Z,4.40
2017-06-19T15:59:10.979Z,4.80
2017-06-19T16:01:45.181Z,4.47
2017-06-19T16:04:19.249Z,4.80
2017-06-19T16:06:53.375Z,4.73
2017-06-19T16:09:27.431Z,4.63
2017-06-19T16:12:01.813Z,5.43
2017-06-19T16:14:36.229Z,4.77
2017-06-19T16:17:13.248Z,4.97
2017-06-19T16:19:47.371Z,4.40
2017-06-19T16:25:36.519Z,4.13
2017-06-19T16:31:25.349Z,4.50
2017-06-19T16:33:59.556Z,4.33
2017-06-19T16:36:33.711Z,4.13
2017-06-19T16:39:07.929Z,4.00
2017-06-19T16:41:42.071Z,4.03
2017-06-19T16:44:16.249Z,4.10
2017-06-19T16:46:50.424Z,4.20
2017-06-19T16:49:24.592Z,4.67
2017-06-19T16:51:58.703Z,4.20
2017-06-19T16:54:32.880Z,4.00
2017-06-19T16:57:06.927Z,4.80
2017-06-19T16:59:41.647Z,3.80
2017-06-19T17:02:15.852Z,4.60
2017-06-19T17:11:19.991Z,4.17
2017-06-19T17:13:54.194Z,4.50
2017-06-19T17:16:28.649Z,3.80
2017-06-19T17:19:03.114Z,4.10
2017-06-19T17:21:37.245Z,4.50
2017-06-19T17:24:11.354Z,3.97
2017-06-19T17:26:45.523Z,4.10
2017-06-19T17:29:19.832Z,4.00
2017-06-19T17:31:54.046Z,3.90
2017-06-19T17:34:28.174Z,4.10
2017-06-19T17:37:02.394Z,4.57
2017-06-19T17:42:51.768Z,4.40
2017-06-19T17:45:25.983Z,4.87
2017-06-19T17:51:14.832Z,4.60
2017-06-19T17:53:49.067Z,4.30
2017-06-19T17:56:23.204Z,4.50
2017-06-19T17:58:57.392Z,5.60
2017-06-19T18:01:31.660Z,4.67
2017-06-19T18:04:05.805Z,4.30
2017-06-19T18:06:40.125Z,4.40
2017-06-19T18:09:14.181Z,4.37
2017-06-19T18:11:48.376Z,3.90
2017-06-19T18:14:22.501Z,4.67
2017-06-19T18:16:56.639Z,4.23
2017-06-19T18:19:30.903Z,4.90
2017-06-19T18:22:05.255Z,4.67
2017-06-19T18:24:39.468Z,4.20
2017-06-19T18:27:13.779Z,4.00
2017-06-19T18:29:47.886Z,4.33
2017-06-19T18:32:21.957Z,5.00
2017-06-19T18:34:56.205Z,4.30
2017-06-19T18:37:30.523Z,4.03
2017-06-19T18:40:04.705Z,4.40
2017-06-19T18:42:38.990Z,4.07
2017-06-19T18:45:13.093Z,4.00
2017-06-19T18:47:47.335Z,4.30
2017-06-19T18:50:21.513Z,3.87
2017-06-19T18:52:55.683Z,4.50
2017-06-19T18:55:29.962Z,4.23
2017-06-19T18:58:04.084Z,4.13
2017-06-19T19:00:38.176Z,4.47
2017-06-19T19:03:12.443Z,4.97
2017-06-19T19:05:46.697Z,4.50
2017-06-19T19:11:35.993Z,4.60
2017-06-19T19:14:10.240Z,4.13
2017-06-19T19:16:44.508Z,4.00
2017-06-19T19:19:18.552Z,3.90
2017-06-19T19:21:52.737Z,4.20
2017-06-19T19:24:26.814Z,4.27
2017-06-19T19:27:01.088Z,4.53
2017-06-19T19:29:35.209Z,4.50
2017-06-19T19:32:09.289Z,4.33
2017-06-19T19:34:43.405Z,4.43
2017-06-19T19:37:17.674Z,4.30
2017-06-19T19:39:51.845Z,4.57
2017-06-19T19:42:25.930Z,4.67
2017-06-19T19:45:00.276Z,4.47
2017-06-19T19:54:04.198Z,4.20
2017-06-19T19:56:38.288Z,4.50
2017-06-19T19:59:12.453Z,4.50
2017-06-19T20:01:46.659Z,4.30
2017-06-19T20:04:20.721Z,4.00
2017-06-19T20:06:54.877Z,5.17
2017-06-19T20:09:29.053Z,4.47
2017-06-19T20:12:03.266Z,4.33
2017-06-19T20:14:37.440Z,4.67
2017-06-19T20:17:11.606Z,4.40
2017-06-19T20:19:45.739Z,4.33
2017-06-19T20:22:19.932Z,4.70
2017-06-19T20:24:54.198Z,4.40
2017-06-19T20:27:28.366Z,4.30
2017-06-19T20:30:02.653Z,4.10
2017-06-19T20:32:36.797Z,4.60
2017-06-19T20:35:11.241Z,4.90
2017-06-19T20:37:45.402Z,5.10
2017-06-19T20:40:19.512Z,4.50
2017-06-19T20:42:54.556Z,4.47
2017-06-19T20:45:28.805Z,4.80
2017-06-19T20:48:03.020Z,4.63
2017-06-19T20:50:37.192Z,4.70
2017-06-19T20:53:11.237Z,4.37
2017-06-19T20:55:46.398Z,5.50
2017-06-19T20:58:20.563Z,4.40
2017-06-19T21:00:54.561Z,4.50
2017-06-19T21:03:28.627Z,4.20
2017-06-19T21:06:02.788Z,4.60
2017-06-19T21:08:37.001Z,5.17
2017-06-19T21:11:11.123Z,4.20
2017-06-19T21:13:45.138Z,4.70
2017-06-19T21:16:19.292Z,4.10
2017-06-19T21:18:53.365Z,4.37
2017-06-19T21:21:27.481Z,4.23
2017-06-19T21:24:01.712Z,4.63
2017-06-19T21:26:36.565Z,4.83
2017-06-19T21:32:25.320Z,5.30
2017-06-19T21:34:59.622Z,4.50
2017-06-19T21:37:33.945Z,5.00
2017-06-19T21:40:07.963Z,5.27
2017-06-19T21:42:42.096Z,5.30
2017-06-19T21:45:16.407Z,4.13
2017-06-19T21:51:05.872Z,4.60
2017-06-19T21:53:40.010Z,5.70
2017-06-19T21:56:14.201Z,4.20
2017-06-19T21:58:48.364Z,4.40
2017-06-19T22:01:22.513Z,5.30
2017-06-19T22:03:56.705Z,4.00
2017-06-19T22:06:30.911Z,4.70
2017-06-19T22:15:35.026Z,4.40
2017-06-19T22:18:09.257Z,4.70
2017-06-19T22:20:49.556Z,4.73
2017-06-19T22:23:23.949Z,5.37
2017-06-19T22:25:58.157Z,5.07
2017-06-19T22:28:32.289Z,6.23
2017-06-19T22:31:06.453Z,6.40
2017-06-19T22:33:40.729Z,5.47
2017-06-19T22:36:15.008Z,5.10
2017-06-19T22:38:49.291Z,5.93
2017-06-19T22:41:23.560Z,6.50
2017-06-19T22:47:12.763Z,6.00
2017-06-19T22:49:47.061Z,5.87
2017-06-19T22:52:21.327Z,6.30
2017-06-19T22:54:55.561Z,6.77
2017-06-19T22:57:29.607Z,6.87
2017-06-19T23:00:07.608Z,6.10
2017-06-19T23:02:41.781Z,6.30
2017-06-19T23:05:16.038Z,5.90
2017-06-19T23:07:50.334Z,6.27
2017-06-19T23:10:24.660Z,6.30
2017-06-19T23:12:58.879Z,6.40
2017-06-19T23:15:32.924Z,5.83
2017-06-19T23:18:07.217Z,6.43
2017-06-19T23:20:41.353Z,6.00
2017-06-19T23:23:15.450Z,5.47
2017-06-19T23:25:49.844Z,6.30
2017-06-19T23:28:24.065Z,5.63
2017-06-19T23:30:58.106Z,6.00
2017-06-19T23:33:32.392Z,6.30
2017-06-19T23:36:06.505Z,6.10
2017-06-19T23:38:40.561Z,6.20
2017-06-19T23:41:14.587Z,6.27
2017-06-19T23:43:48.685Z,6.67
2017-06-19T23:46:23.026Z,6.60
2017-06-19T23:48:57.146Z,6.40
2017-06-19T23:51:31.481Z,6.60
2017-06-19T23:54:05.716Z,7.03
2017-06-19T23:56:39.928Z,6.20
2017-06-19T23:59:14.014Z,7.13
